sensor_id;sensor_type;location;lat;lon;timestamp;pressure;altitude;pressure_sealevel;temperature;humidity
13476;BME280;6810;63.824;20.288;2023-03-16T05:58:06;101402.28;;;-7.65;66.18
13476;BME280;6810;63.824;20.288;2023-03-16T06:00:37;101363.75;;;-7.89;66.37
13476;BME280;6810;63.824;20.288;2023-03-16T06:03:20;101399.63;;;-7.68;66.28
13476;BME280;6810;63.824;20.288;2023-03-16T06:05:49;101412.63;;;-7.65;66.34
13476;BME280;6810;63.824;20.288;2023-03-16T06:08:24;101417.84;;;-7.64;66.88
13476;BME280;6810;63.824;20.288;2023-03-16T06:10:53;101422.19;;;-7.63;66.31
13476;BME280;6810;63.824;20.288;2023-03-16T06:13:20;101422.25;;;-7.61;66.65
13476;BME280;6810;63.824;20.288;2023-03-16T06:15:48;101425.72;;;-7.59;66.49
13476;BME280;6810;63.824;20.288;2023-03-16T06:18:15;101433.44;;;-7.61;66.50
13476;BME280;6810;63.824;20.288;2023-03-16T06:20:44;101422.31;;;-7.58;66.45
13476;BME280;6810;63.824;20.288;2023-03-16T06:23:13;101427.56;;;-7.55;66.66
13476;BME280;6810;63.824;20.288;2023-03-16T06:25:40;101436.31;;;-7.50;66.62
13476;BME280;6810;63.824;20.288;2023-03-16T06:28:08;101436.34;;;-7.49;66.73
13476;BME280;6810;63.824;20.288;2023-03-16T06:30:35;101446.81;;;-7.44;66.71
13476;BME280;6810;63.824;20.288;2023-03-16T06:33:02;101449.44;;;-7.43;66.63
13476;BME280;6810;63.824;20.288;2023-03-16T06:35:30;101429.38;;;-7.51;66.68
13476;BME280;6810;63.824;20.288;2023-03-16T06:38:13;101444.47;;;-7.35;66.59
13476;BME280;6810;63.824;20.288;2023-03-16T06:41:02;101452.31;;;-7.32;66.90
13476;BME280;6810;63.824;20.288;2023-03-16T06:43:32;101379.69;;;-7.72;66.59
13476;BME280;6810;63.824;20.288;2023-03-16T06:45:59;101428.81;;;-7.40;66.49
13476;BME280;6810;63.824;20.288;2023-03-16T06:48:28;101400.81;;;-7.56;66.72
13476;BME280;6810;63.824;20.288;2023-03-16T06:50:56;101459.53;;;-7.19;66.56
13476;BME280;6810;63.824;20.288;2023-03-16T06:53:26;101463.94;;;-7.15;67.08
13476;BME280;6810;63.824;20.288;2023-03-16T06:55:54;101420.06;;;-7.45;66.52
13476;BME280;6810;63.824;20.288;2023-03-16T06:58:21;101477.13;;;-7.06;66.77
13476;BME280;6810;63.824;20.288;2023-03-16T07:00:49;101484.13;;;-7.02;66.84
13476;BME280;6810;63.824;20.288;2023-03-16T07:03:17;101459.66;;;-7.14;66.87
13476;BME280;6810;63.824;20.288;2023-03-16T07:05:51;101486.94;;;-6.93;66.78
13476;BME280;6810;63.824;20.288;2023-03-16T07:08:18;101494.81;;;-6.88;66.77
13476;BME280;6810;63.824;20.288;2023-03-16T07:10:45;101481.03;;;-6.87;66.61
13476;BME280;6810;63.824;20.288;2023-03-16T07:13:12;101495.88;;;-6.80;67.12
13476;BME280;6810;63.824;20.288;2023-03-16T07:15:41;101502.91;;;-6.75;66.94
13476;BME280;6810;63.824;20.288;2023-03-16T07:18:08;101498.69;;;-6.71;66.75
13476;BME280;6810;63.824;20.288;2023-03-16T07:20:35;101505.72;;;-6.66;66.84
13476;BME280;6810;63.824;20.288;2023-03-16T07:23:04;101506.72;;;-6.61;66.87
13476;BME280;6810;63.824;20.288;2023-03-16T07:25:34;101501.47;;;-6.64;66.71
13476;BME280;6810;63.824;20.288;2023-03-16T07:28:02;101510.38;;;-6.53;66.75
13476;BME280;6810;63.824;20.288;2023-03-16T07:30:34;101513.91;;;-6.48;66.85
13476;BME280;6810;63.824;20.288;2023-03-16T07:33:01;101509.72;;;-6.43;66.77
13476;BME280;6810;63.824;20.288;2023-03-16T07:35:30;101521.06;;;-6.38;66.53
13476;BME280;6810;63.824;20.288;2023-03-16T07:37:57;101520.31;;;-6.32;66.73
13476;BME280;6810;63.824;20.288;2023-03-16T07:40:25;101521.31;;;-6.27;66.87
13476;BME280;6810;63.824;20.288;2023-03-16T07:42:57;101515.19;;;-6.29;66.77
13476;BME280;6810;63.824;20.288;2023-03-16T07:45:27;101537.94;;;-6.18;67.12
13476;BME280;6810;63.824;20.288;2023-03-16T07:47:55;101529.41;;;-6.12;66.99
13476;BME280;6810;63.824;20.288;2023-03-16T07:50:47;101535.59;;;-6.07;67.11
13476;BME280;6810;63.824;20.288;2023-03-16T07:53:15;101537.34;;;-6.05;66.77
13476;BME280;6810;63.824;20.288;2023-03-16T07:55:46;101540.97;;;-5.98;66.55
13476;BME280;6810;63.824;20.288;2023-03-16T07:58:13;101546.28;;;-5.92;66.73
13476;BME280;6810;63.824;20.288;2023-03-16T08:00:41;101555.88;;;-5.88;66.49
13476;BME280;6810;63.824;20.288;2023-03-16T08:03:09;101503.34;;;-6.18;66.60
13476;BME280;6810;63.824;20.288;2023-03-16T08:05:36;101570.81;;;-5.77;66.54
13476;BME280;6810;63.824;20.288;2023-03-16T08:08:09;101573.50;;;-5.72;66.94
13476;BME280;6810;63.824;20.288;2023-03-16T08:10:37;101562.22;;;-5.73;66.73
13476;BME280;6810;63.824;20.288;2023-03-16T08:13:10;101575.44;;;-5.61;66.86
13476;BME280;6810;63.824;20.288;2023-03-16T08:15:40;101581.66;;;-5.54;66.94
13476;BME280;6810;63.824;20.288;2023-03-16T08:18:17;101578.28;;;-5.49;67.13
13476;BME280;6810;63.824;20.288;2023-03-16T08:20:45;101584.50;;;-5.42;66.92
13476;BME280;6810;63.824;20.288;2023-03-16T08:23:12;101582.00;;;-5.36;67.01
13476;BME280;6810;63.824;20.288;2023-03-16T08:25:41;101583.88;;;-5.30;66.79
13476;BME280;6810;63.824;20.288;2023-03-16T08:28:13;101589.19;;;-5.24;66.92
13476;BME280;6810;63.824;20.288;2023-03-16T08:30:49;101592.72;;;-5.19;66.38
13476;BME280;6810;63.824;20.288;2023-03-16T08:33:56;101586.84;;;-5.11;66.64
13476;BME280;6810;63.824;20.288;2023-03-16T08:36:25;101593.84;;;-5.05;66.70
13476;BME280;6810;63.824;20.288;2023-03-16T08:38:59;101563.31;;;-5.18;66.85
13476;BME280;6810;63.824;20.288;2023-03-16T08:41:37;101597.56;;;-4.93;66.99
13476;BME280;6810;63.824;20.288;2023-03-16T08:44:14;101603.75;;;-4.86;66.51
13476;BME280;6810;63.824;20.288;2023-03-16T08:46:42;101610.78;;;-4.79;66.83
13476;BME280;6810;63.824;20.288;2023-03-16T08:49:11;101610.03;;;-4.74;66.58
13476;BME280;6810;63.824;20.288;2023-03-16T08:51:40;101610.94;;;-4.70;67.01
13476;BME280;6810;63.824;20.288;2023-03-16T08:54:10;101596.19;;;-4.73;66.30
13476;BME280;6810;63.824;20.288;2023-03-16T08:56:38;101608.56;;;-4.58;66.04
13476;BME280;6810;63.824;20.288;2023-03-16T08:59:05;101608.69;;;-4.51;66.24
13476;BME280;6810;63.824;20.288;2023-03-16T09:01:34;101618.34;;;-4.44;66.89
13476;BME280;6810;63.824;20.288;2023-03-16T09:04:01;101619.31;;;-4.39;67.02
13476;BME280;6810;63.824;20.288;2023-03-16T09:06:29;101631.56;;;-4.32;66.43
13476;BME280;6810;63.824;20.288;2023-03-16T09:08:56;101641.16;;;-4.26;66.04
13476;BME280;6810;63.824;20.288;2023-03-16T09:11:23;101638.69;;;-4.19;66.98
13476;BME280;6810;63.824;20.288;2023-03-16T09:13:54;101634.47;;;-4.12;66.82
13476;BME280;6810;63.824;20.288;2023-03-16T09:16:21;101640.66;;;-4.04;66.71
13476;BME280;6810;63.824;20.288;2023-03-16T09:18:51;101641.66;;;-3.98;66.52
13476;BME280;6810;63.824;20.288;2023-03-16T09:21:19;101649.59;;;-3.89;66.68
13476;BME280;6810;63.824;20.288;2023-03-16T09:23:46;101630.41;;;-3.94;67.02
13476;BME280;6810;63.824;20.288;2023-03-16T09:26:13;101661.13;;;-3.72;66.30
13476;BME280;6810;63.824;20.288;2023-03-16T09:28:41;101656.06;;;-3.63;66.15
13476;BME280;6810;63.824;20.288;2023-03-16T09:31:12;101659.66;;;-3.53;66.63
13476;BME280;6810;63.824;20.288;2023-03-16T09:33:41;101651.91;;;-3.48;66.61
13476;BME280;6810;63.824;20.288;2023-03-16T09:36:08;101670.31;;;-3.35;66.71
13476;BME280;6810;63.824;20.288;2023-03-16T09:38:38;101658.28;;;-3.24;65.58
13476;BME280;6810;63.824;20.288;2023-03-16T09:41:40;101663.66;;;-3.12;65.88
13476;BME280;6810;63.824;20.288;2023-03-16T09:47:03;101679.63;;;-2.83;66.11
13476;BME280;6810;63.824;20.288;2023-03-16T09:49:35;101672.78;;;-2.75;66.65
13476;BME280;6810;63.824;20.288;2023-03-16T09:54:57;101674.81;;;-2.44;65.88
13476;BME280;6810;63.824;20.288;2023-03-16T10:00:09;101682.06;;;-2.13;65.23
13476;BME280;6810;63.824;20.288;2023-03-16T10:02:49;101683.91;;;-1.99;65.63
13476;BME280;6810;63.824;20.288;2023-03-16T10:05:23;101681.44;;;-1.84;65.11
13476;BME280;6810;63.824;20.288;2023-03-16T10:08:06;101665.81;;;-1.79;66.07
13476;BME280;6810;63.824;20.288;2023-03-16T10:15:44;101652.06;;;-1.45;65.67
13476;BME280;6810;63.824;20.288;2023-03-16T10:18:19;101694.94;;;-1.08;65.82
13476;BME280;6810;63.824;20.288;2023-03-16T10:20:50;101692.41;;;-0.93;65.53
13476;BME280;6810;63.824;20.288;2023-03-16T10:23:24;101698.53;;;-0.79;64.89
13476;BME280;6810;63.824;20.288;2023-03-16T10:25:53;101703.81;;;-0.66;64.91
13476;BME280;6810;63.824;20.288;2023-03-16T10:28:23;101690.78;;;-0.60;64.74
13476;BME280;6810;63.824;20.288;2023-03-16T10:30:52;101687.28;;;-0.50;64.64
13476;BME280;6810;63.824;20.288;2023-03-16T10:33:29;101714.41;;;-0.21;65.01
13476;BME280;6810;63.824;20.288;2023-03-16T10:36:11;101705.66;;;-0.05;64.95
13476;BME280;6810;63.824;20.288;2023-03-16T10:43:53;101710.03;;;0.37;64.67
13476;BME280;6810;63.824;20.288;2023-03-16T10:46:25;101713.50;;;0.56;64.34
13476;BME280;6810;63.824;20.288;2023-03-16T10:48:58;101715.22;;;0.70;63.98
13476;BME280;6810;63.824;20.288;2023-03-16T10:51:29;101716.03;;;0.83;63.62
13476;BME280;6810;63.824;20.288;2023-03-16T10:54:07;101717.75;;;0.99;63.76
13476;BME280;6810;63.824;20.288;2023-03-16T10:56:37;101716.81;;;1.12;63.54
13476;BME280;6810;63.824;20.288;2023-03-16T10:59:32;101714.16;;;1.21;63.50
13476;BME280;6810;63.824;20.288;2023-03-16T11:02:17;101733.34;;;1.38;63.28
13476;BME280;6810;63.824;20.288;2023-03-16T11:04:46;101728.94;;;1.47;62.80
13476;BME280;6810;63.824;20.288;2023-03-16T11:07:19;101730.59;;;1.57;62.31
13476;BME280;6810;63.824;20.288;2023-03-16T11:09:47;101730.59;;;1.65;62.16
13476;BME280;6810;63.824;20.288;2023-03-16T11:12:28;101727.91;;;1.74;62.01
13476;BME280;6810;63.824;20.288;2023-03-16T11:15:12;101727.84;;;1.82;62.31
13476;BME280;6810;63.824;20.288;2023-03-16T11:17:51;101737.41;;;1.90;61.33
13476;BME280;6810;63.824;20.288;2023-03-16T11:20:25;101735.63;;;1.97;62.02
13476;BME280;6810;63.824;20.288;2023-03-16T11:22:54;101737.31;;;2.04;61.70
13476;BME280;6810;63.824;20.288;2023-03-16T11:25:45;101747.78;;;2.11;61.20
13476;BME280;6810;63.824;20.288;2023-03-16T11:28:27;101741.59;;;2.18;61.43
13476;BME280;6810;63.824;20.288;2023-03-16T11:33:34;101741.53;;;2.27;59.88
13476;BME280;6810;63.824;20.288;2023-03-16T11:39:30;101764.19;;;2.42;60.71
13476;BME280;6810;63.824;20.288;2023-03-16T11:42:19;101757.13;;;2.47;60.31
13476;BME280;6810;63.824;20.288;2023-03-16T11:44:54;101759.72;;;2.51;59.35
13476;BME280;6810;63.824;20.288;2023-03-16T11:50:47;101743.09;;;2.45;59.27
13476;BME280;6810;63.824;20.288;2023-03-16T12:12:16;101799.13;;;2.59;58.99
13476;BME280;6810;63.824;20.288;2023-03-16T12:15:18;101802.66;;;2.58;58.72
13476;BME280;6810;63.824;20.288;2023-03-16T12:17:43;101785.22;;;2.43;58.06
13476;BME280;6810;63.824;20.288;2023-03-16T12:20:17;101775.66;;;2.36;57.82
13476;BME280;6810;63.824;20.288;2023-03-16T12:22:51;101782.66;;;2.34;57.36
13476;BME280;6810;63.824;20.288;2023-03-16T12:25:21;101780.03;;;2.33;58.26
13476;BME280;6810;63.824;20.288;2023-03-16T12:27:54;101808.84;;;2.48;57.35
13476;BME280;6810;63.824;20.288;2023-03-16T12:36:07;101825.56;;;2.42;56.87
13476;BME280;6810;63.824;20.288;2023-03-16T12:38:56;101830.84;;;2.41;56.63
13476;BME280;6810;63.824;20.288;2023-03-16T12:45:04;101830.91;;;2.35;56.78
13476;BME280;6810;63.824;20.288;2023-03-16T12:48:06;101837.91;;;2.33;56.77
13476;BME280;6810;63.824;20.288;2023-03-16T12:51:00;101840.53;;;2.33;57.50
13476;BME280;6810;63.824;20.288;2023-03-16T12:56:45;101835.28;;;2.31;57.69
13476;BME280;6810;63.824;20.288;2023-03-16T12:59:41;101838.81;;;2.30;57.37
13476;BME280;6810;63.824;20.288;2023-03-16T13:02:35;101831.84;;;2.22;57.33
13476;BME280;6810;63.824;20.288;2023-03-16T13:05:34;101842.34;;;2.29;57.11
13476;BME280;6810;63.824;20.288;2023-03-16T13:08:21;101806.56;;;2.04;57.51
13476;BME280;6810;63.824;20.288;2023-03-16T13:11:10;101851.09;;;2.28;56.52
13476;BME280;6810;63.824;20.288;2023-03-16T13:16:47;101851.09;;;2.28;57.26
13476;BME280;6810;63.824;20.288;2023-03-16T13:19:34;101825.81;;;2.11;57.12
13476;BME280;6810;63.824;20.288;2023-03-16T13:25:34;101860.75;;;2.29;56.28
13476;BME280;6810;63.824;20.288;2023-03-16T13:28:31;101859.84;;;2.30;56.66
13476;BME280;6810;63.824;20.288;2023-03-16T13:31:26;101861.59;;;2.31;56.56
13476;BME280;6810;63.824;20.288;2023-03-16T13:34:19;101862.47;;;2.32;57.14
13476;BME280;6810;63.824;20.288;2023-03-16T13:37:12;101859.84;;;2.32;56.31
13476;BME280;6810;63.824;20.288;2023-03-16T13:40:15;101856.34;;;2.28;56.14
13476;BME280;6810;63.824;20.288;2023-03-16T13:43:03;101849.38;;;2.24;56.67
13476;BME280;6810;63.824;20.288;2023-03-16T13:45:50;101869.47;;;2.34;57.08
13476;BME280;6810;63.824;20.288;2023-03-16T13:48:37;101865.09;;;2.36;57.00
13476;BME280;6810;63.824;20.288;2023-03-16T13:51:25;101857.25;;;2.26;56.69
13476;BME280;6810;63.824;20.288;2023-03-16T13:54:20;101881.75;;;2.38;56.47
13476;BME280;6810;63.824;20.288;2023-03-16T13:57:10;101873.00;;;2.33;56.82
13476;BME280;6810;63.824;20.288;2023-03-16T14:03:16;101858.16;;;2.25;56.39
13476;BME280;6810;63.824;20.288;2023-03-16T14:06:05;101879.94;;;2.42;56.64
13476;BME280;6810;63.824;20.288;2023-03-16T14:08:56;101892.22;;;2.43;55.82
13476;BME280;6810;63.824;20.288;2023-03-16T14:11:43;101883.47;;;2.38;56.71
13476;BME280;6810;63.824;20.288;2023-03-16T14:14:36;101888.72;;;2.42;56.05
13476;BME280;6810;63.824;20.288;2023-03-16T14:17:24;101892.25;;;2.41;57.07
13476;BME280;6810;63.824;20.288;2023-03-16T14:20:31;101892.22;;;2.43;55.95
13476;BME280;6810;63.824;20.288;2023-03-16T14:23:35;101894.81;;;2.47;54.17
13476;BME280;6810;63.824;20.288;2023-03-16T14:26:23;101884.34;;;2.41;55.07
13476;BME280;6810;63.824;20.288;2023-03-16T14:29:22;101904.44;;;2.51;55.40
13476;BME280;6810;63.824;20.288;2023-03-16T14:32:38;101850.25;;;2.23;55.23
13476;BME280;6810;63.824;20.288;2023-03-16T14:35:29;101889.53;;;2.52;54.93
13476;BME280;6810;63.824;20.288;2023-03-16T14:38:35;101903.53;;;2.54;55.51
13476;BME280;6810;63.824;20.288;2023-03-16T14:41:26;101900.06;;;2.53;55.25
13476;BME280;6810;63.824;20.288;2023-03-16T14:44:23;101897.41;;;2.53;55.89
13476;BME280;6810;63.824;20.288;2023-03-16T14:47:21;101904.44;;;2.53;55.31
13476;BME280;6810;63.824;20.288;2023-03-16T14:50:15;101907.06;;;2.53;55.21
13476;BME280;6810;63.824;20.288;2023-03-16T14:53:03;101909.69;;;2.51;56.15
13476;BME280;6810;63.824;20.288;2023-03-16T14:55:50;101900.94;;;2.46;55.25
13476;BME280;6810;63.824;20.288;2023-03-16T14:58:37;101908.81;;;2.49;55.64
13476;BME280;6810;63.824;20.288;2023-03-16T15:01:24;101912.34;;;2.48;56.11
13476;BME280;6810;63.824;20.288;2023-03-16T15:04:18;101904.50;;;2.41;55.64
13476;BME280;6810;63.824;20.288;2023-03-16T15:07:37;101919.38;;;2.46;55.79
13476;BME280;6810;63.824;20.288;2023-03-16T15:10:30;101919.38;;;2.45;56.43
13476;BME280;6810;63.824;20.288;2023-03-16T15:13:19;101919.38;;;2.43;55.71
13476;BME280;6810;63.824;20.288;2023-03-16T15:16:07;101894.97;;;2.28;55.16
13476;BME280;6810;63.824;20.288;2023-03-16T15:18:56;101922.91;;;2.41;55.21
13476;BME280;6810;63.824;20.288;2023-03-16T15:21:43;101922.97;;;2.35;56.01
13476;BME280;6810;63.824;20.288;2023-03-16T15:24:30;101930.84;;;2.38;55.94
13476;BME280;6810;63.824;20.288;2023-03-16T15:27:19;101932.56;;;2.37;54.86
13476;BME280;6810;63.824;20.288;2023-03-16T15:30:14;101910.75;;;2.20;55.82
13476;BME280;6810;63.824;20.288;2023-03-16T15:33:02;101939.66;;;2.32;55.84
13476;BME280;6810;63.824;20.288;2023-03-16T15:35:51;101944.03;;;2.32;55.62
13476;BME280;6810;63.824;20.288;2023-03-16T15:38:42;101937.03;;;2.31;55.04
13476;BME280;6810;63.824;20.288;2023-03-16T15:41:30;101939.66;;;2.28;55.63
13476;BME280;6810;63.824;20.288;2023-03-16T15:44:17;101944.03;;;2.27;55.49
13476;BME280;6810;63.824;20.288;2023-03-16T15:47:04;101937.91;;;2.24;54.96
13476;BME280;6810;63.824;20.288;2023-03-16T15:49:51;101940.56;;;2.21;55.26
13476;BME280;6810;63.824;20.288;2023-03-16T15:52:44;101945.84;;;2.18;55.24
13476;BME280;6810;63.824;20.288;2023-03-16T15:55:35;101948.47;;;2.19;55.02
13476;BME280;6810;63.824;20.288;2023-03-16T15:58:25;101949.34;;;2.18;55.13
13476;BME280;6810;63.824;20.288;2023-03-16T16:01:21;101957.25;;;2.17;55.24
13476;BME280;6810;63.824;20.288;2023-03-16T16:04:15;101947.59;;;2.14;56.07
13476;BME280;6810;63.824;20.288;2023-03-16T16:07:05;101954.63;;;2.12;56.18
13476;BME280;6810;63.824;20.288;2023-03-16T16:09:55;101951.13;;;2.10;56.38
13476;BME280;6810;63.824;20.288;2023-03-16T16:12:46;101959.91;;;2.08;55.65
13476;BME280;6810;63.824;20.288;2023-03-16T16:15:35;101969.56;;;2.06;56.04
13476;BME280;6810;63.824;20.288;2023-03-16T16:18:26;101964.31;;;2.03;56.59
13476;BME280;6810;63.824;20.288;2023-03-16T16:21:22;101967.84;;;1.99;56.52
13476;BME280;6810;63.824;20.288;2023-03-16T16:24:09;101979.22;;;1.95;56.14
13476;BME280;6810;63.824;20.288;2023-03-16T16:26:56;101972.25;;;1.89;56.73
13476;BME280;6810;63.824;20.288;2023-03-16T16:29:43;101976.63;;;1.87;56.22
13476;BME280;6810;63.824;20.288;2023-03-16T16:32:30;101971.38;;;1.81;56.36
13476;BME280;6810;63.824;20.288;2023-03-16T16:35:20;101984.53;;;1.78;56.47
13476;BME280;6810;63.824;20.288;2023-03-16T16:38:07;101981.03;;;1.71;56.50
13476;BME280;6810;63.824;20.288;2023-03-16T16:40:55;101981.03;;;1.67;56.87
13476;BME280;6810;63.824;20.288;2023-03-16T16:43:45;101981.06;;;1.61;56.72
13476;BME280;6810;63.824;20.288;2023-03-16T16:46:37;101981.06;;;1.53;56.76
13476;BME280;6810;63.824;20.288;2023-03-16T16:49:26;101990.69;;;1.48;57.06
13476;BME280;6810;63.824;20.288;2023-03-16T16:52:17;101988.09;;;1.42;56.73
13476;BME280;6810;63.824;20.288;2023-03-16T16:55:05;101930.34;;;0.99;56.87
13476;BME280;6810;63.824;20.288;2023-03-16T16:57:53;101988.09;;;1.30;57.25
13476;BME280;6810;63.824;20.288;2023-03-16T17:00:55;102001.22;;;1.23;57.08
13476;BME280;6810;63.824;20.288;2023-03-16T17:03:42;102008.22;;;1.16;57.30
13476;BME280;6810;63.824;20.288;2023-03-16T17:06:29;102003.84;;;1.09;56.96
13476;BME280;6810;63.824;20.288;2023-03-16T17:09:16;102013.47;;;1.01;56.99
13476;BME280;6810;63.824;20.288;2023-03-16T17:12:03;102022.22;;;0.94;57.24
13476;BME280;6810;63.824;20.288;2023-03-16T17:14:50;102023.03;;;0.84;57.22
13476;BME280;6810;63.824;20.288;2023-03-16T17:17:37;102022.19;;;0.79;57.39
13476;BME280;6810;63.824;20.288;2023-03-16T17:20:25;102016.03;;;0.67;57.42
13476;BME280;6810;63.824;20.288;2023-03-16T17:26:25;102031.72;;;0.55;57.50
13476;BME280;6810;63.824;20.288;2023-03-16T17:29:16;102025.56;;;0.39;57.33
13476;BME280;6810;63.824;20.288;2023-03-16T17:32:22;102043.03;;;0.39;57.37
13476;BME280;6810;63.824;20.288;2023-03-16T17:35:13;102041.25;;;0.30;57.40
13476;BME280;6810;63.824;20.288;2023-03-16T17:38:00;102043.81;;;0.20;57.27
13476;BME280;6810;63.824;20.288;2023-03-16T17:40:48;102046.41;;;0.11;57.59
13476;BME280;6810;63.824;20.288;2023-03-16T17:43:36;102052.47;;;0.05;57.60
13476;BME280;6810;63.824;20.288;2023-03-16T17:46:27;102060.28;;;-0.03;57.55
13476;BME280;6810;63.824;20.288;2023-03-16T17:49:16;102053.25;;;-0.11;57.27
13476;BME280;6810;63.824;20.288;2023-03-16T17:52:13;102057.53;;;-0.21;58.07
13476;BME280;6810;63.824;20.288;2023-03-16T17:55:00;102062.72;;;-0.28;57.63
13476;BME280;6810;63.824;20.288;2023-03-16T17:57:48;102057.41;;;-0.42;57.82
13476;BME280;6810;63.824;20.288;2023-03-16T18:00:36;101992.44;;;-0.88;57.86
13476;BME280;6810;63.824;20.288;2023-03-16T18:03:24;102065.16;;;-0.54;58.19
13476;BME280;6810;63.824;20.288;2023-03-16T18:06:20;102068.56;;;-0.62;57.61
13476;BME280;6810;63.824;20.288;2023-03-16T18:09:07;102072.84;;;-0.70;58.17
13476;BME280;6810;63.824;20.288;2023-03-16T18:11:54;102071.00;;;-0.80;58.13
13476;BME280;6810;63.824;20.288;2023-03-16T18:14:41;102070.06;;;-0.87;58.14
13476;BME280;6810;63.824;20.288;2023-03-16T18:17:29;102076.13;;;-0.94;57.54
13476;BME280;6810;63.824;20.288;2023-03-16T18:20:28;102075.16;;;-1.02;58.56
13476;BME280;6810;63.824;20.288;2023-03-16T18:23:19;102068.97;;;-1.10;57.64
13476;BME280;6810;63.824;20.288;2023-03-16T18:26:06;102074.13;;;-1.17;58.14
13476;BME280;6810;63.824;20.288;2023-03-16T18:28:53;102071.38;;;-1.28;57.78
13476;BME280;6810;63.824;20.288;2023-03-16T18:31:41;102059.88;;;-1.42;57.81
13476;BME280;6810;63.824;20.288;2023-03-16T18:34:32;102066.81;;;-1.47;58.07
13476;BME280;6810;63.824;20.288;2023-03-16T18:37:22;102071.13;;;-1.49;58.92
13476;BME280;6810;63.824;20.288;2023-03-16T18:40:12;102078.00;;;-1.55;58.27
13476;BME280;6810;63.824;20.288;2023-03-16T18:42:59;102053.38;;;-1.76;58.41
13476;BME280;6810;63.824;20.288;2023-03-16T18:45:47;102075.22;;;-1.70;57.86
13476;BME280;6810;63.824;20.288;2023-03-16T18:48:34;102082.09;;;-1.77;58.19
13476;BME280;6810;63.824;20.288;2023-03-16T18:51:21;102084.56;;;-1.86;57.83
13476;BME280;6810;63.824;20.288;2023-03-16T18:54:22;102090.56;;;-1.95;57.77
13476;BME280;6810;63.824;20.288;2023-03-16T18:57:21;102064.16;;;-2.14;58.63
13476;BME280;6810;63.824;20.288;2023-03-16T19:00:14;102085.00;;;-2.17;57.85
13476;BME280;6810;63.824;20.288;2023-03-16T19:03:01;102097.19;;;-2.16;58.13
13476;BME280;6810;63.824;20.288;2023-03-16T19:05:48;102097.09;;;-2.24;57.89
13476;BME280;6810;63.824;20.288;2023-03-16T19:08:35;102109.16;;;-2.30;58.87
13476;BME280;6810;63.824;20.288;2023-03-16T19:11:22;102102.94;;;-2.38;58.07
13476;BME280;6810;63.824;20.288;2023-03-16T19:14:18;102110.66;;;-2.44;59.23
13476;BME280;6810;63.824;20.288;2023-03-16T19:17:06;102108.72;;;-2.56;58.51
13476;BME280;6810;63.824;20.288;2023-03-16T19:19:53;102112.16;;;-2.58;59.09
13476;BME280;6810;63.824;20.288;2023-03-16T19:22:40;102112.91;;;-2.65;59.13
13476;BME280;6810;63.824;20.288;2023-03-16T19:25:34;102118.00;;;-2.73;58.21
13476;BME280;6810;63.824;20.288;2023-03-16T19:28:27;102117.00;;;-2.79;59.01
13476;BME280;6810;63.824;20.288;2023-03-16T19:31:20;102129.06;;;-2.86;58.62
13476;BME280;6810;63.824;20.288;2023-03-16T19:34:17;102125.47;;;-2.92;59.38
13476;BME280;6810;63.824;20.288;2023-03-16T19:37:04;102132.25;;;-3.00;59.86
13476;BME280;6810;63.824;20.288;2023-03-16T19:39:51;102134.75;;;-3.06;58.53
13476;BME280;6810;63.824;20.288;2023-03-16T19:42:39;102133.72;;;-3.13;59.29
13476;BME280;6810;63.824;20.288;2023-03-16T19:45:31;102112.53;;;-3.31;58.73
13476;BME280;6810;63.824;20.288;2023-03-16T19:48:25;102135.19;;;-3.27;59.53
13476;BME280;6810;63.824;20.288;2023-03-16T19:51:15;102083.09;;;-3.69;59.18
13476;BME280;6810;63.824;20.288;2023-03-16T19:54:02;102150.56;;;-3.39;59.64
13476;BME280;6810;63.824;20.288;2023-03-16T19:56:50;102159.16;;;-3.44;59.92
13476;BME280;6810;63.824;20.288;2023-03-16T19:59:38;102162.50;;;-3.51;58.70
13476;BME280;6810;63.824;20.288;2023-03-16T20:02:37;102162.31;;;-3.58;58.92
13476;BME280;6810;63.824;20.288;2023-03-16T20:05:27;102162.19;;;-3.64;60.01
13476;BME280;6810;63.824;20.288;2023-03-16T20:11:14;102168.81;;;-3.79;58.95
13476;BME280;6810;63.824;20.288;2023-03-16T20:14:02;102176.59;;;-3.81;59.70
13476;BME280;6810;63.824;20.288;2023-03-16T20:16:49;102153.59;;;-3.98;59.57
13476;BME280;6810;63.824;20.288;2023-03-16T20:19:36;102167.59;;;-3.93;60.14
13476;BME280;6810;63.824;20.288;2023-03-16T20:22:25;102120.88;;;-4.24;59.08
13476;BME280;6810;63.824;20.288;2023-03-16T20:25:12;102168.19;;;-4.05;59.84
13476;BME280;6810;63.824;20.288;2023-03-16T20:28:00;102156.47;;;-4.22;59.42
13476;BME280;6810;63.824;20.288;2023-03-16T20:30:48;102124.84;;;-4.38;60.26
13476;BME280;6810;63.824;20.288;2023-03-16T20:33:35;102168.63;;;-4.22;60.27
13476;BME280;6810;63.824;20.288;2023-03-16T20:36:23;102153.53;;;-4.35;60.05
13476;BME280;6810;63.824;20.288;2023-03-16T20:39:11;102179.59;;;-4.34;59.85
13476;BME280;6810;63.824;20.288;2023-03-16T20:41:58;102180.28;;;-4.41;60.20
13476;BME280;6810;63.824;20.288;2023-03-16T20:44:45;102184.50;;;-4.46;59.80
13476;BME280;6810;63.824;20.288;2023-03-16T20:47:32;102185.22;;;-4.51;60.13
13476;BME280;6810;63.824;20.288;2023-03-16T20:50:27;102189.38;;;-4.58;60.62
13476;BME280;6810;63.824;20.288;2023-03-16T20:53:14;102200.53;;;-4.63;59.81
13476;BME280;6810;63.824;20.288;2023-03-16T20:56:01;102132.69;;;-5.03;59.85
13476;BME280;6810;63.824;20.288;2023-03-16T20:58:50;102192.34;;;-4.77;59.76
13476;BME280;6810;63.824;20.288;2023-03-16T21:01:37;102192.31;;;-4.78;59.91
13476;BME280;6810;63.824;20.288;2023-03-16T21:04:26;102190.41;;;-4.84;60.65
13476;BME280;6810;63.824;20.288;2023-03-16T21:07:13;102202.38;;;-4.89;59.96
13476;BME280;6810;63.824;20.288;2023-03-16T21:10:00;102191.88;;;-4.93;60.30
13476;BME280;6810;63.824;20.288;2023-03-16T21:12:54;102203.88;;;-4.98;60.44
13476;BME280;6810;63.824;20.288;2023-03-16T21:15:41;102208.06;;;-5.03;60.65
13476;BME280;6810;63.824;20.288;2023-03-16T21:18:28;102143.78;;;-5.40;60.19
13476;BME280;6810;63.824;20.288;2023-03-16T21:21:17;102195.53;;;-5.16;60.51
13476;BME280;6810;63.824;20.288;2023-03-16T21:24:05;102205.06;;;-5.17;60.41
13476;BME280;6810;63.824;20.288;2023-03-16T21:26:52;102206.63;;;-5.22;60.55